Time;durP1;ratioP1;P1;durP2;ratioP2;P2;SDS_P1;SDS_P2;PMS_P1;PMS_P2;Temp;Humidity;BMP_temperature;BMP_pressure;BME280_temperature;BME280_humidity;BME280_pressure;Samples;Min_cycle;Max_cycle;Signal;HPM_P1;HPM_P2
2023/01/15 06:10:05;;;;;;;4.63;0.55;;;;;;;;;;4918439;27;20556;-71
2023/01/15 06:12:32;;;;;;;8.35;1.15;;;;;;;;;;4923981;28;20489;-71
2023/01/15 06:14:59;;;;;;;2.35;0.68;;;;;;;;;;4954739;28;20050;-72
2023/01/15 06:17:26;;;;;;;9.48;0.85;;;;;;;;;;4997615;28;20181;-71
2023/01/15 06:19:53;;;;;;;4.50;0.68;;;;;;;;;;4936334;28;20052;-71
2023/01/15 09:07:57;;;;;;;5.57;1.10;;;;;;;;;;6218086;22;1727459;-70
2023/01/15 09:10:27;;;;;;;5.18;1.08;;;;;;;;;;6180117;22;20021;-70
2023/01/15 09:12:54;;;;;;;3.42;0.52;;;;;;;;;;6177195;22;20095;-70
2023/01/15 09:15:21;;;;;;;6.43;1.00;;;;;;;;;;6169826;22;20027;-69
2023/01/15 09:17:48;;;;;;;5.70;1.02;;;;;;;;;;6187151;22;20275;-70
2023/01/15 09:20:15;;;;;;;7.53;1.00;;;;;;;;;;6209732;22;20032;-70
2023/01/15 09:22:44;;;;;;;5.25;1.15;;;;;;;;;;6208311;22;20024;-69
2023/01/15 09:25:15;;;;;;;5.95;0.80;;;;;;;;;;6178370;22;20024;-69
2023/01/15 09:27:45;;;;;;;6.72;1.00;;;;;;;;;;6186216;22;20028;-69
2023/01/15 09:30:17;;;;;;;4.10;1.08;;;;;;;;;;6220020;22;20032;-69
2023/01/15 09:32:44;;;;;;;7.07;1.10;;;;;;;;;;6148235;23;20017;-69
2023/01/15 09:35:13;;;;;;;7.05;0.95;;;;;;;;;;6155153;23;20032;-69
2023/01/15 09:37:40;;;;;;;4.63;0.95;;;;;;;;;;6159905;22;20019;-71
2023/01/15 09:40:09;;;;;;;6.53;1.25;;;;;;;;;;6192075;22;20035;-70
2023/01/15 09:42:46;;;;;;;5.28;1.00;;;;;;;;;;6221603;22;20024;-69
2023/01/15 09:45:18;;;;;;;3.25;0.93;;;;;;;;;;6194395;22;20040;-69
2023/01/15 09:47:50;;;;;;;4.93;0.82;;;;;;;;;;6214219;22;20235;-69
2023/01/15 09:50:21;;;;;;;3.60;0.80;;;;;;;;;;6185753;23;20024;-69
2023/01/15 09:52:59;;;;;;;5.50;1.13;;;;;;;;;;6175193;22;20027;-70
2023/01/15 09:55:29;;;;;;;4.72;0.75;;;;;;;;;;6107336;23;20202;-69
2023/01/15 09:57:58;;;;;;;2.78;0.70;;;;;;;;;;6160069;22;20104;-70
2023/01/15 10:00:35;;;;;;;3.90;0.82;;;;;;;;;;6164800;22;20201;-69
2023/01/15 10:03:06;;;;;;;7.97;1.00;;;;;;;;;;6215060;22;20027;-70
2023/01/15 10:05:44;;;;;;;6.07;1.05;;;;;;;;;;6189978;22;20023;-70
2023/01/15 10:08:15;;;;;;;5.60;0.98;;;;;;;;;;6267056;22;20039;-70
2023/01/15 10:10:46;;;;;;;6.57;1.02;;;;;;;;;;6194427;22;20089;-70
2023/01/15 10:13:18;;;;;;;8.00;1.00;;;;;;;;;;6196412;22;20024;-69
2023/01/15 10:15:46;;;;;;;6.75;1.08;;;;;;;;;;6146290;22;20027;-70
2023/01/15 10:18:15;;;;;;;5.05;1.00;;;;;;;;;;6184452;22;20024;-70
2023/01/15 10:20:49;;;;;;;6.00;1.30;;;;;;;;;;6165472;22;20025;-70
2023/01/15 10:23:24;;;;;;;4.03;0.88;;;;;;;;;;6181712;23;20117;-70
2023/01/15 10:25:51;;;;;;;5.22;0.93;;;;;;;;;;6177033;22;20398;-69
2023/01/15 10:28:23;;;;;;;9.98;0.93;;;;;;;;;;6200546;23;20200;-69
2023/01/15 10:30:52;;;;;;;8.20;1.15;;;;;;;;;;6173843;22;20082;-69
2023/01/15 10:33:28;;;;;;;5.35;0.93;;;;;;;;;;6153905;22;20030;-69
2023/01/15 10:36:02;;;;;;;2.50;0.82;;;;;;;;;;6196061;22;20087;-69
2023/01/15 10:38:41;;;;;;;2.05;0.77;;;;;;;;;;6174336;23;20028;-71
2023/01/15 10:41:15;;;;;;;2.35;0.70;;;;;;;;;;6190245;22;20027;-69
2023/01/15 10:43:50;;;;;;;2.20;0.73;;;;;;;;;;6166067;22;20034;-70
2023/01/15 10:46:18;;;;;;;4.35;0.75;;;;;;;;;;6170901;22;20016;-70
2023/01/15 10:48:49;;;;;;;4.77;0.90;;;;;;;;;;6223750;22;20026;-70
2023/01/15 10:51:17;;;;;;;4.30;0.75;;;;;;;;;;6189178;22;20094;-69
2023/01/15 10:53:44;;;;;;;;;;;;;;;;;;6149970;22;20020;-70
2023/01/15 10:56:14;;;;;;;4.50;0.70;;;;;;;;;;6188581;22;19919;-70
2023/01/15 10:58:46;;;;;;;4.22;0.80;;;;;;;;;;6214675;22;20053;-69
2023/01/15 11:01:20;;;;;;;6.45;1.08;;;;;;;;;;6190213;22;20028;-69
2023/01/15 11:03:51;;;;;;;4.30;0.90;;;;;;;;;;6141438;22;20163;-69
2023/01/15 11:06:19;;;;;;;7.43;0.82;;;;;;;;;;6175482;22;20074;-70
2023/01/15 11:08:50;;;;;;;8.50;0.97;;;;;;;;;;6190676;22;20138;-70
2023/01/15 11:11:19;;;;;;;8.77;1.20;;;;;;;;;;6157819;22;20053;-70
2023/01/15 11:19:41;;;;;;;5.38;0.80;;;;;;;;;;6210512;22;20193;-69
2023/01/15 11:22:10;;;;;;;9.23;0.80;;;;;;;;;;6213442;22;20023;-69
2023/01/15 11:24:37;;;;;;;5.50;0.95;;;;;;;;;;6183503;22;20206;-70
2023/01/15 11:27:05;;;;;;;6.07;0.98;;;;;;;;;;6206483;22;20099;-69
2023/01/15 11:29:44;;;;;;;4.20;0.90;;;;;;;;;;6165622;22;20020;-69
2023/01/15 11:32:19;;;;;;;7.53;0.95;;;;;;;;;;6229508;22;20270;-70
2023/01/15 11:34:52;;;;;;;6.30;0.80;;;;;;;;;;6197095;22;20137;-69
2023/01/15 11:37:19;;;;;;;5.75;0.90;;;;;;;;;;6206296;22;20027;-69
2023/01/15 11:39:52;;;;;;;5.72;0.82;;;;;;;;;;6206655;22;20027;-69
2023/01/15 11:50:48;;;;;;;5.47;0.93;;;;;;;;;;6197864;22;20031;-69
2023/01/15 11:53:17;;;;;;;8.68;1.02;;;;;;;;;;6201483;22;20092;-70
2023/01/15 11:55:51;;;;;;;5.50;1.05;;;;;;;;;;6181933;22;20182;-70
2023/01/15 11:58:23;;;;;;;11.20;1.13;;;;;;;;;;6205976;22;20019;-71
2023/01/15 12:00:55;;;;;;;7.05;0.85;;;;;;;;;;6194659;22;20171;-70
2023/01/15 12:03:23;;;;;;;7.28;1.15;;;;;;;;;;6186668;22;20023;-70
2023/01/15 12:05:54;;;;;;;6.17;1.57;;;;;;;;;;6162115;22;20042;-71
2023/01/15 12:08:37;;;;;;;3.58;0.70;;;;;;;;;;6241050;22;20032;-70
2023/01/15 12:14:25;;;;;;;;;;;;;;;;;;6111647;22;20085;-72
2023/01/15 13:04:27;;;;;;;5.45;1.00;;;;;;;;;;6256995;22;1376142;-72
2023/01/15 13:07:21;;;;;;;1.65;0.65;;;;;;;;;;6229052;22;20030;-72
2023/01/15 13:09:49;;;;;;;5.65;1.05;;;;;;;;;;6218790;22;20019;-72
2023/01/15 13:12:17;;;;;;;3.83;0.93;;;;;;;;;;6196863;22;20024;-73
2023/01/15 13:15:28;;;;;;;4.93;1.08;;;;;;;;;;6161416;22;20190;-73
2023/01/15 13:26:23;;;;;;;5.57;2.05;;;;;;;;;;4879886;28;20042;-71
2023/01/15 13:29:17;;;;;;;;;;;;;;;;;;;;;
2023/01/15 13:31:55;;;;;;;2.42;0.77;;;;;;;;;;4899795;28;20071;-73
2023/01/15 13:34:27;;;;;;;5.15;1.00;;;;;;;;;;4936309;28;20070;-71
2023/01/15 13:36:59;;;;;;;3.15;0.90;;;;;;;;;;4916505;28;20061;-72
2023/01/15 13:39:41;;;;;;;4.22;0.82;;;;;;;;;;4927097;28;20062;-72
2023/01/15 13:42:34;;;;;;;6.47;1.10;;;;;;;;;;4977797;28;20208;-72
2023/01/15 13:45:26;;;;;;;;;;;;;;;;;;;;;
2023/01/15 13:48:13;;;;;;;4.05;0.82;;;;;;;;;;4991003;28;20480;-72
2023/01/15 13:50:56;;;;;;;9.65;2.10;;;;;;;;;;4968468;28;20119;-72
2023/01/15 13:53:40;;;;;;;10.50;1.27;;;;;;;;;;4932975;28;20050;-72
2023/01/15 13:56:38;;;;;;;;;;;;;;;;;;;;;
2023/01/15 13:59:56;;;;;;;5.57;1.13;;;;;;;;;;4936269;28;20062;-73
2023/01/15 14:02:33;;;;;;;;;;;;;;;;;;4931106;28;20497;-73
2023/01/15 14:05:20;;;;;;;5.78;1.00;;;;;;;;;;4932112;28;20390;-72
2023/01/15 14:07:51;;;;;;;4.18;1.02;;;;;;;;;;4802234;29;20064;-73
2023/01/15 14:40:17;;;;;;;3.92;1.10;;;;;;;;;;6215426;22;1675776;-71
2023/01/15 14:43:05;;;;;;;2.78;0.77;;;;;;;;;;6128448;23;20024;-72
2023/01/15 14:48:52;;;;;;;4.45;0.80;;;;;;;;;;6094845;23;20028;-72
2023/01/15 14:51:48;;;;;;;4.68;1.13;;;;;;;;;;6151240;23;20028;-72
2023/01/15 14:54:18;;;;;;;3.75;1.00;;;;;;;;;;6119926;22;20261;-72
2023/01/15 15:02:22;;;;;;;8.38;1.30;;;;;;;;;;4952345;28;20081;-73
2023/01/15 15:04:52;;;;;;;5.63;1.30;;;;;;;;;;4983328;28;20085;-73
2023/01/15 15:10:09;;;;;;;3.95;1.23;;;;;;;;;;4830486;28;20046;-73
2023/01/15 15:12:43;;;;;;;6.32;1.17;;;;;;;;;;4932453;28;20055;-73
2023/01/15 15:15:21;;;;;;;2.17;0.85;;;;;;;;;;4898626;28;20134;-72
2023/01/15 15:18:12;;;;;;;4.00;0.98;;;;;;;;;;4823560;28;20056;-73
2023/01/15 16:21:08;;;;;;;3.60;0.82;;;;;;;;;;5870946;22;8780972;-71
2023/01/15 16:23:37;;;;;;;7.72;1.20;;;;;;;;;;6108504;23;20044;-71
2023/01/15 16:26:12;;;;;;;4.35;1.00;;;;;;;;;;6153906;23;20104;-71
2023/01/15 16:28:42;;;;;;;4.88;1.20;;;;;;;;;;6149442;23;20032;-72
2023/01/15 16:31:11;;;;;;;2.65;1.00;;;;;;;;;;6133417;23;20032;-71
2023/01/15 16:33:44;;;;;;;4.40;1.00;;;;;;;;;;6132706;23;20028;-74
2023/01/15 16:44:51;;;;;;;3.30;0.90;;;;;;;;;;6005595;23;20033;-72
2023/01/15 16:50:31;;;;;;;3.70;1.02;;;;;;;;;;6015464;23;20026;-69
2023/01/15 16:53:00;;;;;;;5.47;1.00;;;;;;;;;;6054257;23;20023;-69
2023/01/15 16:55:43;;;;;;;4.90;1.27;;;;;;;;;;6094066;23;20033;-71
2023/01/15 16:58:22;;;;;;;5.03;1.00;;;;;;;;;;6240104;22;20028;-69
2023/01/15 17:00:54;;;;;;;4.55;1.10;;;;;;;;;;6194269;22;20036;-70
2023/01/15 17:03:21;;;;;;;6.03;1.10;;;;;;;;;;6165395;23;20108;-71
2023/01/15 17:05:49;;;;;;;3.95;1.00;;;;;;;;;;6170600;23;20308;-70
2023/01/15 17:08:19;;;;;;;6.13;1.05;;;;;;;;;;6167889;23;20079;-70
2023/01/15 17:10:53;;;;;;;5.10;1.20;;;;;;;;;;6176207;23;20020;-70
2023/01/15 17:13:20;;;;;;;3.65;1.40;;;;;;;;;;6139340;23;20060;-70
2023/01/15 17:15:59;;;;;;;5.47;0.90;;;;;;;;;;6141704;23;20020;-69
2023/01/15 17:18:28;;;;;;;3.83;0.90;;;;;;;;;;6153232;23;20033;-71
2023/01/15 17:20:55;;;;;;;4.53;1.15;;;;;;;;;;6169613;23;20025;-71
2023/01/15 17:23:23;;;;;;;4.82;1.08;;;;;;;;;;6166511;23;20086;-70
2023/01/15 17:25:50;;;;;;;3.05;1.00;;;;;;;;;;6171911;23;20016;-69
2023/01/15 17:28:18;;;;;;;4.22;0.90;;;;;;;;;;6120371;22;20051;-70
2023/01/15 17:30:47;;;;;;;3.80;1.00;;;;;;;;;;6192733;23;20032;-70
2023/01/15 17:33:14;;;;;;;5.35;1.15;;;;;;;;;;6180939;23;20040;-70
2023/01/15 17:35:42;;;;;;;2.50;0.90;;;;;;;;;;6188388;23;20020;-70
2023/01/15 17:38:12;;;;;;;7.05;1.27;;;;;;;;;;6167448;23;20070;-70
2023/01/15 17:40:39;;;;;;;2.97;0.90;;;;;;;;;;6195759;23;20029;-71
2023/01/15 17:43:06;;;;;;;3.50;0.85;;;;;;;;;;6191676;23;20032;-69
2023/01/15 17:45:33;;;;;;;5.30;0.93;;;;;;;;;;6191536;23;20425;-69
2023/01/15 17:48:01;;;;;;;4.47;1.00;;;;;;;;;;6184104;23;20059;-70
2023/01/15 17:50:29;;;;;;;4.70;0.73;;;;;;;;;;6170273;23;20203;-69
2023/01/15 17:52:57;;;;;;;4.43;1.02;;;;;;;;;;6165615;23;20016;-69
2023/01/15 18:06:23;;;;;;;6.65;1.30;;;;;;;;;;6178635;23;20028;-70
2023/01/15 18:08:54;;;;;;;2.72;1.08;;;;;;;;;;6144731;23;20028;-69
2023/01/15 18:11:20;;;;;;;3.22;0.90;;;;;;;;;;6169263;23;20027;-69
2023/01/15 18:13:47;;;;;;;3.92;1.27;;;;;;;;;;6188970;23;20036;-69
2023/01/15 18:16:14;;;;;;;5.40;1.00;;;;;;;;;;6135811;23;20102;-69
2023/01/15 18:18:41;;;;;;;2.95;0.80;;;;;;;;;;6171804;23;20034;-69
2023/01/15 18:21:07;;;;;;;5.03;0.98;;;;;;;;;;6178351;23;20031;-70
2023/01/15 18:23:38;;;;;;;2.42;0.80;;;;;;;;;;6141509;23;20504;-70
2023/01/15 18:26:07;;;;;;;2.40;0.90;;;;;;;;;;6171494;23;20024;-69
2023/01/15 18:28:33;;;;;;;;;;;;;;;;;;6187965;23;20028;-70
2023/01/15 18:31:00;;;;;;;3.78;0.90;;;;;;;;;;6165657;23;19930;-70
2023/01/15 18:33:27;;;;;;;4.47;1.15;;;;;;;;;;6180482;23;20110;-69
2023/01/15 18:36:01;;;;;;;3.67;0.90;;;;;;;;;;6181897;23;20031;-70
2023/01/15 18:38:27;;;;;;;3.53;0.98;;;;;;;;;;6189781;23;20028;-69
2023/01/15 18:40:54;;;;;;;2.78;0.90;;;;;;;;;;6167275;23;20030;-69
2023/01/15 18:48:50;;;;;;;5.43;1.00;;;;;;;;;;6143059;23;20016;-69
2023/01/15 18:51:22;;;;;;;4.38;1.10;;;;;;;;;;6136839;23;20024;-70
2023/01/15 18:53:48;;;;;;;1.55;0.70;;;;;;;;;;6120838;22;20167;-69
2023/01/15 18:56:37;;;;;;;2.25;1.05;;;;;;;;;;6135256;23;20025;-70
2023/01/15 18:59:05;;;;;;;2.38;0.82;;;;;;;;;;6113670;23;20029;-70
2023/01/15 19:01:36;;;;;;;2.65;1.00;;;;;;;;;;6113460;23;20029;-71
2023/01/15 19:04:12;;;;;;;3.90;0.95;;;;;;;;;;6138413;23;20087;-71
2023/01/15 19:06:43;;;;;;;2.42;1.00;;;;;;;;;;6106229;23;20044;-71
2023/01/15 19:09:15;;;;;;;4.43;1.05;;;;;;;;;;6123134;23;20032;-71
2023/01/15 19:11:45;;;;;;;3.55;1.17;;;;;;;;;;6099333;23;20120;-71
2023/01/15 19:19:47;;;;;;;4.40;0.98;;;;;;;;;;6044677;23;20103;-70
2023/01/15 19:25:00;;;;;;;3.42;0.95;;;;;;;;;;6214342;22;20042;-71
2023/01/15 19:27:26;;;;;;;1.60;0.65;;;;;;;;;;6163169;23;20033;-70
2023/01/15 19:29:55;;;;;;;1.90;0.80;;;;;;;;;;6170856;22;20323;-70
2023/01/15 19:32:22;;;;;;;1.65;0.70;;;;;;;;;;6196846;22;20020;-70
2023/01/15 19:34:49;;;;;;;2.38;0.80;;;;;;;;;;6165088;23;20035;-70
2023/01/15 19:37:16;;;;;;;4.05;0.80;;;;;;;;;;6104177;23;20025;-71
2023/01/15 19:39:46;;;;;;;3.17;1.05;;;;;;;;;;6102964;22;20048;-71
2023/01/15 19:50:37;;;;;;;3.70;0.75;;;;;;;;;;6161025;23;20546;-71
2023/01/15 19:53:10;;;;;;;3.28;0.77;;;;;;;;;;6103295;23;20534;-70
2023/01/15 19:55:40;;;;;;;3.45;1.00;;;;;;;;;;6148336;23;20052;-71
2023/01/15 19:58:08;;;;;;;2.03;0.98;;;;;;;;;;6128801;22;20027;-71
2023/01/15 20:00:39;;;;;;;3.97;1.30;;;;;;;;;;6151668;23;20156;-71
2023/01/15 20:03:08;;;;;;;2.78;1.00;;;;;;;;;;6134921;23;20274;-71
2023/01/15 20:05:37;;;;;;;3.08;0.80;;;;;;;;;;6165818;23;20024;-72
2023/01/15 20:08:07;;;;;;;4.22;1.20;;;;;;;;;;6133447;23;20028;-71
2023/01/15 20:10:37;;;;;;;3.25;0.90;;;;;;;;;;6170176;23;20032;-71
2023/01/15 20:15:51;;;;;;;3.53;1.23;;;;;;;;;;6134755;22;20071;-70
2023/01/15 20:18:21;;;;;;;2.65;1.00;;;;;;;;;;6129302;23;20048;-71
2023/01/15 20:20:48;;;;;;;1.90;0.90;;;;;;;;;;6165730;23;20028;-71
2023/01/15 20:23:15;;;;;;;3.35;1.10;;;;;;;;;;6160797;23;20028;-71
2023/01/15 20:25:45;;;;;;;6.00;1.20;;;;;;;;;;6102522;22;20028;-71
2023/01/15 20:28:12;;;;;;;4.40;1.20;;;;;;;;;;6135640;23;20029;-71
2023/01/15 20:30:41;;;;;;;3.28;1.25;;;;;;;;;;6163613;23;20071;-71
2023/01/15 20:33:11;;;;;;;4.10;1.25;;;;;;;;;;6121048;23;20030;-71
2023/01/15 20:35:38;;;;;;;2.50;0.95;;;;;;;;;;6127506;23;20091;-71
2023/01/15 20:38:06;;;;;;;3.80;1.02;;;;;;;;;;6139568;23;20028;-71
2023/01/15 20:40:32;;;;;;;6.47;0.93;;;;;;;;;;6141688;23;20047;-71
2023/01/15 20:45:43;;;;;;;3.65;1.02;;;;;;;;;;6140443;22;20071;-72
2023/01/15 20:51:01;;;;;;;2.05;1.13;;;;;;;;;;6168576;23;20029;-71
2023/01/15 20:53:41;;;;;;;6.22;1.83;;;;;;;;;;6048499;23;20033;-73
2023/01/15 20:56:13;;;;;;;3.67;1.10;;;;;;;;;;6169184;23;20028;-71
2023/01/15 20:58:40;;;;;;;2.78;1.02;;;;;;;;;;6102029;23;20048;-71
2023/01/15 21:01:10;;;;;;;3.08;0.98;;;;;;;;;;6136002;23;20263;-71
2023/01/15 21:03:41;;;;;;;2.78;0.95;;;;;;;;;;6149079;22;20090;-72
2023/01/15 21:06:08;;;;;;;1.73;0.90;;;;;;;;;;6162421;23;20024;-71
2023/01/15 21:08:35;;;;;;;1.13;0.70;;;;;;;;;;6120572;23;20035;-72
2023/01/15 21:11:02;;;;;;;2.95;1.00;;;;;;;;;;6133148;23;20029;-70
2023/01/15 21:13:32;;;;;;;4.47;0.95;;;;;;;;;;6021236;23;20114;-71
2023/01/15 21:15:59;;;;;;;2.03;0.80;;;;;;;;;;6036598;23;20030;-71
2023/01/15 21:18:30;;;;;;;2.40;1.00;;;;;;;;;;6100780;23;20114;-72
2023/01/15 21:21:01;;;;;;;2.38;1.20;;;;;;;;;;6034271;23;20032;-71
2023/01/15 21:23:39;;;;;;;5.65;1.15;;;;;;;;;;6114390;23;20042;-72
2023/01/15 21:36:14;;;;;;;2.63;1.20;;;;;;;;;;4987687;28;20418;-75
2023/01/15 21:51:22;;;;;;;4.88;1.25;;;;;;;;;;4961634;28;20455;-74
